createdAt,value
2018-03-01T00:01:04.307Z,100279.31
2018-03-01T00:03:30.695Z,100294.80
2018-03-01T00:05:57.058Z,100300.33
2018-03-01T00:08:23.475Z,100287.75
2018-03-01T00:10:49.853Z,100294.70
2018-03-01T00:13:16.238Z,100297.14
2018-03-01T00:15:42.680Z,100293.94
2018-03-01T00:18:09.030Z,100304.39
2018-03-01T00:20:35.386Z,100310.28
2018-03-01T00:23:01.766Z,100300.66
2018-03-01T00:25:28.165Z,100303.89
2018-03-01T00:27:54.602Z,100304.25
2018-03-01T00:30:20.961Z,100307.32
2018-03-01T00:32:47.356Z,100306.53
2018-03-01T00:35:13.749Z,100306.48
2018-03-01T00:37:40.129Z,100299.30
2018-03-01T00:40:06.522Z,100313.47
2018-03-01T00:42:32.926Z,100300.03
2018-03-01T00:44:59.381Z,100311.02
2018-03-01T00:47:25.754Z,100317.78
2018-03-01T00:49:52.155Z,100309.30
2018-03-01T00:52:18.546Z,100305.70
2018-03-01T00:54:44.909Z,100304.64
2018-03-01T00:57:11.305Z,100304.84
2018-03-01T00:59:37.696Z,100301.87
2018-03-01T01:02:04.104Z,100304.00
2018-03-01T01:04:30.527Z,100297.52
2018-03-01T01:06:56.906Z,100311.31
2018-03-01T01:09:23.276Z,100298.86
2018-03-01T01:11:49.761Z,100305.48
2018-03-01T01:14:16.142Z,100301.44
2018-03-01T01:16:42.517Z,100308.52
2018-03-01T01:19:08.934Z,100311.39
2018-03-01T01:21:35.409Z,100311.56
2018-03-01T01:24:01.837Z,100319.15
2018-03-01T01:26:28.210Z,100315.16
2018-03-01T01:28:56.058Z,100314.07
2018-03-01T01:31:22.465Z,100319.30
2018-03-01T01:33:49.238Z,100322.41
2018-03-01T01:36:15.678Z,100315.91
2018-03-01T01:38:42.111Z,100326.05
2018-03-01T01:41:08.480Z,100322.84
2018-03-01T01:43:34.847Z,100322.67
2018-03-01T01:46:01.247Z,100319.97
2018-03-01T01:48:27.603Z,100327.46
2018-03-01T01:51:02.938Z,100328.53
2018-03-01T01:53:29.313Z,100337.57
2018-03-01T01:55:55.725Z,100335.50
2018-03-01T01:58:22.066Z,100339.00
2018-03-01T02:00:48.487Z,100328.73
2018-03-01T02:03:14.887Z,100340.19
2018-03-01T02:05:41.253Z,100343.47
2018-03-01T02:08:07.614Z,100344.41
2018-03-01T02:10:35.362Z,100337.38
2018-03-01T02:13:10.086Z,100336.88
2018-03-01T02:15:36.922Z,100336.16
2018-03-01T02:18:09.397Z,100337.91
2018-03-01T02:20:35.795Z,100340.34
2018-03-01T02:23:11.105Z,100343.38
2018-03-01T02:25:46.748Z,100340.87
2018-03-01T02:28:14.515Z,100337.45
2018-03-01T02:30:40.938Z,100337.32
2018-03-01T02:33:07.363Z,100334.87
2018-03-01T02:35:33.829Z,100334.07
2018-03-01T02:38:00.239Z,100340.17
2018-03-01T02:40:26.650Z,100340.06
2018-03-01T02:42:53.022Z,100340.79
2018-03-01T02:45:19.429Z,100344.96
2018-03-01T02:47:45.863Z,100349.88
2018-03-01T02:50:12.278Z,100358.70
2018-03-01T02:52:38.742Z,100360.72
2018-03-01T02:55:05.118Z,100354.15
2018-03-01T02:57:31.529Z,100351.75
2018-03-01T02:59:57.931Z,100358.21
2018-03-01T03:02:24.310Z,100357.41
2018-03-01T03:04:50.698Z,100363.47
2018-03-01T03:07:17.085Z,100363.89
2018-03-01T03:09:43.461Z,100357.16
2018-03-01T03:12:09.859Z,100360.92
2018-03-01T03:14:36.258Z,100356.23
2018-03-01T03:17:02.814Z,100347.70
2018-03-01T03:19:29.174Z,100356.58
2018-03-01T03:21:55.569Z,100356.83
2018-03-01T03:24:21.934Z,100357.77
2018-03-01T03:26:48.354Z,100358.20
2018-03-01T03:29:14.758Z,100358.28
2018-03-01T03:31:41.136Z,100364.73
2018-03-01T03:34:07.506Z,100365.48
2018-03-01T03:36:33.884Z,100356.52
2018-03-01T03:39:00.300Z,100357.16
2018-03-01T03:41:26.665Z,100355.47
2018-03-01T03:43:53.040Z,100352.59
2018-03-01T03:46:19.447Z,100355.41
2018-03-01T03:48:45.811Z,100355.41
2018-03-01T03:51:13.430Z,100360.00
2018-03-01T03:53:39.794Z,100363.63
2018-03-01T03:56:06.189Z,100364.48
2018-03-01T03:58:32.557Z,100365.60
2018-03-01T04:00:58.946Z,100360.88
2018-03-01T04:03:32.311Z,100366.73
2018-03-01T04:05:58.678Z,100354.41
2018-03-01T04:08:25.053Z,100363.53
2018-03-01T04:10:51.559Z,100368.39
2018-03-01T04:13:17.959Z,100366.60
2018-03-01T04:15:45.354Z,100372.36
2018-03-01T04:18:11.763Z,100366.91
2018-03-01T04:20:38.153Z,100371.47
2018-03-01T04:23:04.547Z,100375.77
2018-03-01T04:25:30.953Z,100379.66
2018-03-01T04:27:57.372Z,100387.66
2018-03-01T04:30:23.762Z,100395.41
2018-03-01T04:32:50.149Z,100398.16
2018-03-01T04:35:16.683Z,100405.78
2018-03-01T04:37:43.125Z,100408.64
2018-03-01T04:40:09.500Z,100408.86
2018-03-01T04:42:39.986Z,100406.67
2018-03-01T04:45:06.490Z,100411.91
2018-03-01T04:47:32.873Z,100408.39
2018-03-01T05:03:21.021Z,100418.83
2018-03-01T05:05:47.377Z,100431.63
2018-03-01T05:08:13.762Z,100432.56
2018-03-01T05:10:40.246Z,100439.34
2018-03-01T05:13:06.613Z,100430.69
2018-03-01T05:15:32.958Z,100442.52
2018-03-01T05:17:59.389Z,100436.78
2018-03-01T05:20:25.745Z,100439.89
2018-03-01T05:22:52.109Z,100449.33
2018-03-01T05:25:18.470Z,100446.63
2018-03-01T05:27:44.865Z,100444.50
2018-03-01T05:30:11.205Z,100452.69
2018-03-01T05:32:37.590Z,100451.61
2018-03-01T05:35:03.996Z,100446.76
2018-03-01T05:37:30.344Z,100443.42
2018-03-01T05:39:56.724Z,100437.70
2018-03-01T05:42:23.147Z,100433.33
2018-03-01T05:44:49.546Z,100432.83
2018-03-01T05:47:15.921Z,100432.28
2018-03-01T05:49:42.290Z,100434.50
2018-03-01T05:52:08.642Z,100429.48
2018-03-01T05:54:35.050Z,100433.45
2018-03-01T05:57:01.438Z,100436.11
2018-03-01T05:59:27.861Z,100441.23
2018-03-01T06:01:54.226Z,100444.97
2018-03-01T06:04:20.651Z,100460.36
2018-03-01T06:06:47.153Z,100450.90
2018-03-01T06:09:13.578Z,100447.16
2018-03-01T06:11:39.959Z,100459.99
2018-03-01T06:14:06.809Z,100459.59
2018-03-01T06:16:33.322Z,100456.72
2018-03-01T06:18:59.767Z,100462.83
2018-03-01T06:21:26.203Z,100452.61
2018-03-01T06:23:52.627Z,100456.22
2018-03-01T06:26:19.005Z,100457.06
2018-03-01T06:28:45.421Z,100455.68
2018-03-01T06:31:11.766Z,100465.59
2018-03-01T06:33:38.133Z,100460.75
2018-03-01T06:36:04.543Z,100455.31
2018-03-01T06:38:30.901Z,100449.20
2018-03-01T06:40:57.281Z,100452.25
2018-03-01T06:43:23.724Z,100447.44
2018-03-01T06:45:50.215Z,100453.41
2018-03-01T06:48:16.625Z,100451.93
2018-03-01T06:50:43.060Z,100460.95
2018-03-01T06:53:09.505Z,100465.69
2018-03-01T06:55:35.906Z,100454.78
2018-03-01T06:58:02.343Z,100456.97
2018-03-01T07:00:28.774Z,100450.72
2018-03-01T07:02:55.174Z,100457.68
2018-03-01T07:05:21.758Z,100455.91
2018-03-01T07:07:48.146Z,100449.34
2018-03-01T07:10:14.525Z,100452.97
2018-03-01T07:12:41.087Z,100455.06
2018-03-01T07:15:07.483Z,100449.61
2018-03-01T07:17:33.908Z,100447.18
2018-03-01T07:20:00.319Z,100441.14
2018-03-01T07:22:26.729Z,100447.20
2018-03-01T07:24:53.128Z,100444.81
2018-03-01T07:27:19.534Z,100437.89
2018-03-01T07:29:45.946Z,100442.22
2018-03-01T07:32:12.293Z,100439.94
2018-03-01T07:34:38.686Z,100429.10
2018-03-01T07:37:05.197Z,100420.86
2018-03-01T07:39:31.676Z,100428.55
2018-03-01T07:41:58.050Z,100425.31
2018-03-01T07:44:24.422Z,100437.16
2018-03-01T07:46:50.833Z,100433.74
2018-03-01T07:49:17.223Z,100427.87
2018-03-01T07:51:43.628Z,100431.03
2018-03-01T07:54:10.022Z,100430.91
2018-03-01T07:56:36.587Z,100418.14
2018-03-01T07:59:03.061Z,100425.51
2018-03-01T08:01:29.437Z,100430.32
2018-03-01T08:03:55.857Z,100422.05
2018-03-01T08:06:22.223Z,100424.09
2018-03-01T08:08:48.593Z,100418.09
2018-03-01T08:11:14.976Z,100423.75
2018-03-01T08:13:41.409Z,100421.81
2018-03-01T08:16:07.806Z,100420.17
2018-03-01T08:18:34.189Z,100422.12
2018-03-01T08:21:00.572Z,100415.98
2018-03-01T08:23:26.958Z,100428.84
2018-03-01T08:25:53.336Z,100438.61
2018-03-01T08:28:19.728Z,100427.34
2018-03-01T08:30:46.130Z,100424.31
2018-03-01T08:33:12.683Z,100421.37
2018-03-01T08:35:39.126Z,100422.12
2018-03-01T08:38:05.483Z,100418.44
2018-03-01T08:40:31.838Z,100421.47
2018-03-01T08:42:58.193Z,100414.20
2018-03-01T08:45:24.559Z,100407.23
2018-03-01T08:47:50.925Z,100405.15
2018-03-01T08:50:17.301Z,100395.63
2018-03-01T08:52:43.661Z,100396.17
2018-03-01T08:55:10.046Z,100388.17
2018-03-01T08:57:36.418Z,100386.55
2018-03-01T09:00:02.886Z,100385.33
2018-03-01T09:02:29.270Z,100382.30
2018-03-01T09:04:55.652Z,100383.65
2018-03-01T09:07:22.026Z,100382.02
2018-03-01T09:09:48.421Z,100369.89
2018-03-01T09:12:14.828Z,100375.05
2018-03-01T09:14:41.198Z,100369.50
2018-03-01T09:17:07.558Z,100369.52
2018-03-01T09:19:33.949Z,100356.09
2018-03-01T09:22:00.357Z,100357.45
2018-03-01T09:24:26.740Z,100347.12
2018-03-01T09:26:53.164Z,100342.28
2018-03-01T09:29:19.542Z,100337.20
2018-03-01T09:31:46.033Z,100328.52
2018-03-01T09:34:12.403Z,100341.48
2018-03-01T09:36:38.773Z,100341.85
2018-03-01T09:39:05.163Z,100329.84
2018-03-01T09:41:31.560Z,100341.12
2018-03-01T09:43:57.973Z,100357.47
2018-03-01T09:46:24.358Z,100354.02
2018-03-01T09:48:50.734Z,100341.00
2018-03-01T09:51:17.087Z,100330.31
2018-03-01T09:53:43.450Z,100321.27
2018-03-01T09:56:09.806Z,100310.91
2018-03-01T09:58:36.179Z,100304.84
2018-03-01T10:01:02.551Z,100305.72
2018-03-01T10:03:28.916Z,100297.08
2018-03-01T10:05:55.272Z,100299.69
2018-03-01T10:08:21.665Z,100297.09
2018-03-01T10:10:48.022Z,100296.17
2018-03-01T10:13:14.391Z,100290.53
2018-03-01T10:15:40.782Z,100279.85
2018-03-01T10:18:07.191Z,100285.00
2018-03-01T10:20:33.649Z,100277.19
2018-03-01T10:23:00.038Z,100282.77
2018-03-01T10:25:26.423Z,100265.02
2018-03-01T10:27:52.790Z,100254.69
2018-03-01T10:30:19.176Z,100257.64
2018-03-01T10:32:45.642Z,100246.81
2018-03-01T10:35:11.998Z,100245.48
2018-03-01T10:37:38.346Z,100245.91
2018-03-01T10:40:04.702Z,100230.28
2018-03-01T10:42:31.081Z,100230.37
2018-03-01T10:44:57.470Z,100227.39
2018-03-01T10:47:23.863Z,100228.15
2018-03-01T10:49:50.231Z,100230.26
2018-03-01T10:52:16.594Z,100222.98
2018-03-01T10:54:42.950Z,100210.36
2018-03-01T10:57:09.386Z,100210.89
2018-03-01T10:59:35.839Z,100196.56
2018-03-01T11:02:02.297Z,100190.44
2018-03-01T11:04:28.759Z,100192.76
2018-03-01T11:06:55.118Z,100183.09
2018-03-01T11:09:21.517Z,100183.88
2018-03-01T11:11:47.899Z,100174.38
2018-03-01T11:14:14.298Z,100168.73
2018-03-01T11:16:40.710Z,100173.92
2018-03-01T11:19:07.229Z,100163.19
2018-03-01T11:21:33.623Z,100166.04
2018-03-01T11:23:59.988Z,100166.09
2018-03-01T11:26:26.353Z,100164.38
2018-03-01T11:28:52.751Z,100150.45
2018-03-01T11:31:19.162Z,100152.13
2018-03-01T11:33:45.537Z,100148.75
2018-03-01T11:36:11.904Z,100146.66
2018-03-01T11:38:38.271Z,100145.02
2018-03-01T11:41:04.669Z,100146.61
2018-03-01T11:43:31.114Z,100143.48
2018-03-01T11:45:57.500Z,100134.77
2018-03-01T11:48:23.885Z,100133.03
2018-03-01T11:50:50.333Z,100123.88
2018-03-01T11:53:16.800Z,100123.95
2018-03-01T11:55:43.210Z,100123.91
2018-03-01T11:58:09.595Z,100121.73
2018-03-01T12:00:36.034Z,100120.05
2018-03-01T12:03:02.407Z,100123.06
2018-03-01T12:05:28.818Z,100110.90
2018-03-01T12:07:55.230Z,100111.30
2018-03-01T12:10:21.703Z,100107.92
2018-03-01T12:12:48.130Z,100107.55
2018-03-01T12:15:14.594Z,100094.56
2018-03-01T12:17:40.970Z,100088.02
2018-03-01T12:20:07.402Z,100079.36
2018-03-01T12:22:33.818Z,100081.12
2018-03-01T12:25:00.238Z,100079.39
2018-03-01T12:27:26.642Z,100076.31
2018-03-01T12:29:53.152Z,100073.72
2018-03-01T12:32:19.546Z,100069.88
2018-03-01T12:34:46.011Z,100060.38
2018-03-01T12:37:12.415Z,100058.66
2018-03-01T12:39:38.833Z,100054.33
2018-03-01T12:42:05.243Z,100051.30
2018-03-01T12:44:31.749Z,100049.03
2018-03-01T12:46:58.175Z,100057.30
2018-03-01T12:49:24.602Z,100054.60
2018-03-01T12:51:51.071Z,100054.22
2018-03-01T12:54:17.545Z,100041.27
2018-03-01T12:56:44.078Z,100035.19
2018-03-01T12:59:10.501Z,100028.19
2018-03-01T13:01:36.929Z,100018.17
2018-03-01T13:04:03.361Z,100022.10
2018-03-01T13:06:29.774Z,100008.72
2018-03-01T13:08:56.205Z,100007.39
2018-03-01T13:11:22.655Z,100011.39
2018-03-01T13:13:49.135Z,100001.82
2018-03-01T13:16:15.587Z,100000.12
2018-03-01T13:18:42.002Z,100002.74
2018-03-01T13:21:08.499Z,99995.25
2018-03-01T13:23:35.096Z,99995.69
2018-03-01T13:26:01.610Z,99992.17
2018-03-01T13:28:28.149Z,99990.42
2018-03-01T13:30:55.372Z,99991.61
2018-03-01T13:33:29.961Z,99982.12
2018-03-01T13:35:56.413Z,99990.33
2018-03-01T13:38:22.846Z,99981.66
2018-03-01T13:40:49.297Z,99985.17
2018-03-01T13:43:18.806Z,99972.88
2018-03-01T13:45:48.197Z,99966.69
2018-03-01T13:48:14.680Z,99967.98
2018-03-01T13:50:41.138Z,99966.79
2018-03-01T13:53:07.566Z,99966.36
2018-03-01T13:55:34.062Z,99971.17
2018-03-01T13:58:00.543Z,99970.66
2018-03-01T14:00:27.031Z,99963.79
2018-03-01T14:02:53.598Z,99966.33
2018-03-01T14:05:20.108Z,99974.14
2018-03-01T14:21:16.358Z,99977.72
2018-03-01T14:23:44.895Z,99987.55
2018-03-01T14:26:16.290Z,99981.00
2018-03-01T14:28:42.776Z,99967.73
2018-03-01T14:31:09.290Z,99963.14
2018-03-01T14:33:35.722Z,99969.50
2018-03-01T14:36:02.111Z,99966.47
2018-03-01T14:38:28.529Z,99954.60
2018-03-01T14:40:55.074Z,99953.13
2018-03-01T14:43:21.530Z,99947.56
2018-03-01T14:45:47.915Z,99954.34
2018-03-01T14:48:14.293Z,99957.86
2018-03-01T14:50:40.705Z,99954.86
2018-03-01T14:53:07.117Z,99959.64
2018-03-01T14:55:33.514Z,99963.09
2018-03-01T14:57:59.942Z,99958.84
2018-03-01T15:00:26.359Z,99955.91
2018-03-01T15:02:52.813Z,99958.54
2018-03-01T15:05:19.221Z,99960.25
2018-03-01T15:07:45.654Z,99956.75
2018-03-01T15:10:12.166Z,99949.86
2018-03-01T15:12:38.547Z,99947.13
2018-03-01T15:15:04.937Z,99950.98
2018-03-01T15:17:31.394Z,99949.13
2018-03-01T15:19:57.754Z,99951.76
2018-03-01T15:22:24.154Z,99952.16
2018-03-01T15:24:50.708Z,99956.97
2018-03-01T15:27:17.095Z,99963.84
2018-03-01T15:29:43.458Z,99964.61
2018-03-01T15:32:09.855Z,99962.48
2018-03-01T15:34:36.301Z,99954.77
2018-03-01T15:37:02.709Z,99952.27
2018-03-01T15:39:29.214Z,99959.11
2018-03-01T15:41:55.669Z,99957.02
2018-03-01T15:44:22.025Z,99950.53
2018-03-01T15:46:48.451Z,99944.95
2018-03-01T15:49:14.869Z,99944.06
2018-03-01T15:51:41.313Z,99943.27
2018-03-01T15:54:07.697Z,99940.27
2018-03-01T15:56:34.122Z,99945.42
2018-03-01T15:59:00.594Z,99957.03
2018-03-01T16:01:26.974Z,99949.69
2018-03-01T16:03:53.426Z,99958.31
2018-03-01T16:06:19.885Z,99962.22
2018-03-01T16:08:46.250Z,99966.92
2018-03-01T16:11:12.740Z,99964.40
2018-03-01T16:13:39.150Z,99957.03
2018-03-01T16:16:05.559Z,99951.44
2018-03-01T16:18:32.027Z,99937.17
2018-03-01T16:20:58.449Z,99944.98
2018-03-01T16:23:24.803Z,99941.98
2018-03-01T16:25:51.194Z,99946.32
2018-03-01T16:28:17.594Z,99950.61
2018-03-01T16:30:48.462Z,99951.03
2018-03-01T16:33:14.866Z,99955.78
2018-03-01T16:35:41.302Z,99951.88
2018-03-01T16:38:07.701Z,99952.75
2018-03-01T16:40:34.153Z,99962.64
2018-03-01T16:43:00.615Z,99961.81
2018-03-01T16:45:27.012Z,99963.09
2018-03-01T16:47:53.409Z,99969.98
2018-03-01T16:50:19.866Z,99965.20
2018-03-01T16:52:46.286Z,99976.44
2018-03-01T16:55:12.671Z,99979.02
2018-03-01T16:57:39.106Z,99977.22
2018-03-01T17:00:05.527Z,99964.77
2018-03-01T17:02:31.968Z,99957.47
2018-03-01T17:04:58.364Z,99954.91
2018-03-01T17:07:24.754Z,99946.30
2018-03-01T17:09:51.147Z,99943.30
2018-03-01T17:12:17.548Z,99926.92
2018-03-01T17:14:43.963Z,99919.17
2018-03-01T17:17:10.355Z,99907.56
2018-03-01T17:19:36.784Z,99908.42
2018-03-01T17:22:03.154Z,99906.27
2018-03-01T17:24:29.563Z,99905.86
2018-03-01T17:26:55.968Z,99901.98
2018-03-01T17:29:22.362Z,99911.03
2018-03-01T17:31:48.750Z,99925.65
2018-03-01T17:34:15.164Z,99936.84
2018-03-01T17:36:41.585Z,99941.59
2018-03-01T17:39:07.990Z,99951.05
2018-03-01T17:41:34.385Z,99942.84
2018-03-01T17:44:00.766Z,99944.14
2018-03-01T17:46:27.187Z,99939.84
2018-03-01T17:48:53.645Z,99934.69
2018-03-01T17:51:20.029Z,99935.97
2018-03-01T17:53:46.451Z,99931.25
2018-03-01T17:56:12.886Z,99916.16
2018-03-01T17:58:39.281Z,99916.62
2018-03-01T18:01:05.742Z,99909.70
2018-03-01T18:03:32.173Z,99910.60
2018-03-01T18:05:58.590Z,99905.84
2018-03-01T18:08:24.970Z,99916.62
2018-03-01T18:10:51.430Z,99908.85
2018-03-01T18:13:17.827Z,99900.70
2018-03-01T18:15:44.223Z,99899.83
2018-03-01T18:18:10.623Z,99889.91
2018-03-01T18:20:37.006Z,99892.94
2018-03-01T18:23:03.422Z,99900.25
2018-03-01T18:25:29.828Z,99904.98
2018-03-01T18:27:56.256Z,99902.85
2018-03-01T18:30:22.614Z,99894.23
2018-03-01T18:32:49.038Z,99890.78
2018-03-01T18:35:15.410Z,99892.91
2018-03-01T18:37:41.800Z,99882.55
2018-03-01T18:40:08.289Z,99880.47
2018-03-01T18:42:34.705Z,99902.40
2018-03-01T18:45:01.110Z,99900.70
2018-03-01T18:47:27.577Z,99892.50
2018-03-01T18:49:53.989Z,99897.25
2018-03-01T18:52:20.402Z,99905.42
2018-03-01T18:54:46.870Z,99906.27
2018-03-01T18:57:13.253Z,99921.34
2018-03-01T18:59:39.626Z,99931.23
2018-03-01T19:02:06.014Z,99923.03
2018-03-01T19:04:32.422Z,99918.20
2018-03-01T19:06:58.813Z,99900.25
2018-03-01T19:09:25.207Z,99886.07
2018-03-01T19:11:51.645Z,99879.58
2018-03-01T19:14:18.035Z,99870.55
2018-03-01T19:16:44.505Z,99871.00
2018-03-01T19:19:10.898Z,99877.46
2018-03-01T19:21:37.285Z,99884.34
2018-03-01T19:24:03.719Z,99882.19
2018-03-01T19:26:30.135Z,99870.56
2018-03-01T19:28:56.514Z,99858.09
2018-03-01T19:31:22.888Z,99843.89
2018-03-01T19:33:49.306Z,99843.48
2018-03-01T19:36:15.685Z,99828.85
2018-03-01T19:38:42.381Z,99827.53
2018-03-01T19:41:08.765Z,99821.55
2018-03-01T19:43:35.142Z,99811.63
2018-03-01T19:46:01.579Z,99822.80
2018-03-01T19:48:27.991Z,99820.23
2018-03-01T19:50:54.403Z,99821.53
2018-03-01T19:53:20.803Z,99817.23
2018-03-01T19:55:47.239Z,99815.92
2018-03-01T19:58:13.638Z,99818.08
2018-03-01T20:00:40.050Z,99813.79
2018-03-01T20:03:06.511Z,99811.63
2018-03-01T20:05:32.927Z,99834.42
2018-03-01T20:07:59.340Z,99839.16
2018-03-01T20:10:26.191Z,99839.16
2018-03-01T20:12:55.930Z,99833.98
2018-03-01T20:15:24.523Z,99823.66
2018-03-01T20:17:52.619Z,99828.00
2018-03-01T20:20:19.806Z,99827.98
2018-03-01T20:22:46.301Z,99819.37
2018-03-01T20:25:12.704Z,99815.52
2018-03-01T20:27:39.100Z,99807.77
2018-03-01T20:30:05.522Z,99816.80
2018-03-01T20:32:32.075Z,99816.80
2018-03-01T20:34:59.262Z,99819.38
2018-03-01T20:37:27.134Z,99812.52
2018-03-01T20:39:55.746Z,99809.91
2018-03-01T20:42:24.089Z,99810.35
2018-03-01T20:44:50.986Z,99809.91
2018-03-01T20:47:17.510Z,99815.94
2018-03-01T20:49:43.870Z,99809.91
2018-03-01T20:52:10.634Z,99804.33
2018-03-01T20:54:37.367Z,99807.34
2018-03-01T20:57:03.961Z,99799.58
2018-03-01T20:59:30.421Z,99794.02
2018-03-01T21:01:56.975Z,99793.14
2018-03-01T21:04:23.398Z,99790.98
2018-03-01T21:06:49.815Z,99778.97
2018-03-01T21:09:16.182Z,99760.48
2018-03-01T21:11:42.644Z,99758.73
2018-03-01T21:14:09.066Z,99760.47
2018-03-01T21:16:35.466Z,99763.89
2018-03-01T21:19:01.941Z,99758.31
2018-03-01T21:21:28.304Z,99757.86
2018-03-01T21:23:54.671Z,99759.61
2018-03-01T21:26:21.090Z,99745.42
2018-03-01T21:28:47.465Z,99737.23
2018-03-01T21:31:14.077Z,99735.92
2018-03-01T21:33:40.642Z,99732.05
2018-03-01T21:36:07.095Z,99726.03
2018-03-01T21:38:33.484Z,99719.13
2018-03-01T21:40:59.870Z,99713.95
2018-03-01T21:43:26.383Z,99712.64
2018-03-01T21:45:52.766Z,99714.77
2018-03-01T21:48:19.219Z,99710.91
2018-03-01T21:50:45.673Z,99708.73
2018-03-01T21:53:12.132Z,99711.77
2018-03-01T21:55:38.538Z,99713.49
2018-03-01T21:58:04.970Z,99718.28
2018-03-01T22:00:31.366Z,99703.66
2018-03-01T22:02:57.830Z,99705.78
2018-03-01T22:05:24.226Z,99709.64
2018-03-01T22:07:50.635Z,99701.05
2018-03-01T22:10:17.177Z,99687.66
2018-03-01T22:12:43.669Z,99694.58
2018-03-01T22:15:10.925Z,99694.59
2018-03-01T22:17:37.372Z,99702.75
2018-03-01T22:20:03.770Z,99698.03
2018-03-01T22:22:30.209Z,99695.94
2018-03-01T22:24:56.629Z,99703.66
2018-03-01T22:27:23.301Z,99695.05
2018-03-01T22:29:49.731Z,99683.44
2018-03-01T22:32:16.186Z,99682.58
2018-03-01T22:34:42.636Z,99683.03
2018-03-01T22:37:09.026Z,99674.87
2018-03-01T22:39:35.406Z,99668.81
2018-03-01T22:42:01.836Z,99671.40
2018-03-01T22:44:28.270Z,99669.27
2018-03-01T22:46:54.671Z,99658.55
2018-03-01T22:49:21.047Z,99653.33
2018-03-01T22:51:47.397Z,99642.97
2018-03-01T22:54:13.771Z,99636.48
2018-03-01T22:56:40.162Z,99636.84
2018-03-01T22:59:06.543Z,99630.38
2018-03-01T23:01:32.954Z,99624.40
2018-03-01T23:03:59.383Z,99623.92
2018-03-01T23:06:25.759Z,99626.91
2018-03-01T23:08:52.183Z,99626.50
2018-03-01T23:11:18.573Z,99626.95
2018-03-01T23:13:44.973Z,99621.34
2018-03-01T23:16:11.322Z,99617.64
2018-03-01T23:18:37.689Z,99618.50
2018-03-01T23:21:04.070Z,99610.27
2018-03-01T23:23:30.424Z,99602.44
2018-03-01T23:25:57.004Z,99595.08
2018-03-01T23:28:23.570Z,99590.89
2018-03-01T23:30:49.947Z,99583.93
2018-03-01T23:33:16.310Z,99582.97
2018-03-01T23:35:42.750Z,99587.30
2018-03-01T23:38:09.163Z,99580.85
2018-03-01T23:40:35.597Z,99579.97
2018-03-01T23:43:01.985Z,99574.85
2018-03-01T23:45:28.443Z,99573.08
2018-03-01T23:47:54.882Z,99580.41
2018-03-01T23:50:21.245Z,99568.33
2018-03-01T23:52:47.782Z,99572.23
2018-03-01T23:55:14.149Z,99577.45
2018-03-01T23:57:40.532Z,99562.38
